MP3/FLAC

‹ prev 2022-07-11 next › 488 release(s) · 66,55 GB · filter: day
Release Group Size Files Date ↓
David_Rodigan--BBC_Radio_1Xtra-DVBS-07-03-2022-OMA OMA 218,71 MB 4 2022-07-11
Jogging_House--Self-(SEIL002)-WEB-2017-BABAS BABAS 113,80 MB 14 2022-07-11
Jogging_House--Weight-(SEIL033)-WEB-2022-BABAS BABAS 93,23 MB 14 2022-07-11
Sofie_Birch--Whisper_Fold_Brush-(SEIL027)-WEB-2021-BABAS BABAS 87,87 MB 6 2022-07-11
Aurele_-_Aurele_and_Friends_Vol._1_(DM01)-WEB-2022-TR TR 71,82 MB 10 2022-07-11
Austin_Cesear_-_Theres_A_Crack_In_Everything_(PRB005)-WEB-2014-TR TR 43,73 MB 7 2022-07-11
AVIVX_-_Dark_Temple_(EE037)-WEB-2022-TR TR 63,67 MB 8 2022-07-11
Avgusto_-_Body_Jack_EP_(FLASH299)-WEB-2022-TR TR 38,09 MB 7 2022-07-11
Worms_x_Bugs--Container-(SEIL003)-WEB-2017-BABAS BABAS 89,45 MB 14 2022-07-11
Black_Light_Smoke_-_Work_(DDM09)-WEB-2022-TR TR 66,00 MB 10 2022-07-11
Cadence_-_Grey_Matter_EP_(INSVEP013)-WEB-2022-TR TR 64,79 MB 8 2022-07-11
DJ_Python_-_iEstereo_Bomba_Vol._1_(PRB017)-WEB-2016-TR TR 62,15 MB 7 2022-07-11
Jamz_Supernova--BBC_Radio_6_Music-DVBS-07-02-2022-OMA OMA 201,03 MB 4 2022-07-11
2-Bigg_MC-Hes_King_Of_The_Hype-CD-FLAC-1990-RAGEFLAC RAGEFLAC 272,26 MB 14 2022-07-11
Halv_Drom_-_Serpent_Scan_(BITE021)-WEB-2022-TR TR 70,73 MB 9 2022-07-11
Hank_Jackson_-_Palee_Hit_(PRB004)-WEB-2014-TR TR 37,04 MB 7 2022-07-11
Huerco_S._-_A_Verdigris_Reader_(PRB006)-WEB-2014-TR TR 60,37 MB 8 2022-07-11
Jack_Fresia_and_Ben_Reymann_-_Split_B_(MSMU008)-WEB-2022-TR TR 54,17 MB 8 2022-07-11
Jamz_Supernova--BBC_Radio_6_Music-DVBS-07-09-2022-OMA OMA 202,71 MB 4 2022-07-11
Jamahr_-_Cloud_Formations_(CAPTEA001)-WEB-2020-TR TR 66,75 MB 8 2022-07-11
Db_Bass_Killaz-Sub-Breaks-CD-2000-RAGEMP3 RAGEMP3 89,24 MB 18 2022-07-11
Crooked_Walking--As_It_Moves_In_Dark-(SEIL005)-WEB-2018-BABAS BABAS 65,85 MB 10 2022-07-11
Elizabethan_Collar--ELIZA_B_C-WEB-2019-BABAS BABAS 60,38 MB 9 2022-07-11
Hainbach--Ambient_Piano_Works-(SEIL008)-WEB-2018-BABAS BABAS 104,02 MB 14 2022-07-11
Hainbach--Core_Memory-(SEIL039)-WEB-2022-BABAS BABAS 91,64 MB 16 2022-07-11
Hainbach--Gestures-(SEIL013)-WEB-2019-BABAS BABAS 79,24 MB 13 2022-07-11
Hiroshi_Ebina--If_Theres_Any_Tinge_Of_This_World-(SEIL031)-WEB-2021-BABAS BABAS 89,49 MB 14 2022-07-11
Idra--Lone_Voyagers_Lovers_and_Lands-(SEIL023)-WEB-2020-BABAS BABAS 90,26 MB 12 2022-07-11
Jogging_House--From-(SEIL004)-WEB-2017-BABAS BABAS 102,11 MB 14 2022-07-11
Jogging_House--Would-(SEIL007)-WEB-2018-BABAS BABAS 145,12 MB 12 2022-07-11
Paperbark--Inhaling_Mist-(SEIL034)-WEB-2021-BABAS BABAS 107,29 MB 12 2022-07-11
Paperbark--Last_Night-(SEIL009)-WEB-2018-BABAS BABAS 113,05 MB 16 2022-07-11
The_Lifted_Index--Sanctuary-(SEIL028)-WEB-2021-BABAS BABAS 100,42 MB 14 2022-07-11
Thme--Red_Roses_Are_Red_Now-(SEIL032)-WEB-2021-BABAS BABAS 82,45 MB 13 2022-07-11
Xth_Reflexion--05-06-(012016002002)-REMASTERED-WEB-2017-BABAS BABAS 134,09 MB 14 2022-07-11
Dorbachov_-_Viakal_EP_(UKR297)-WEB-2022-TR TR 45,20 MB 7 2022-07-11
Ebass_and_Jack_Fresia_-_Split_A_(MSMU007)-WEB-2022-TR TR 54,34 MB 8 2022-07-11
Effy_-_Not_What_It_Seems_(Not_Yours)-WEB-2022-TR TR 48,02 MB 8 2022-07-11
Gallery_S_and_MoMa_Ready_-_No_Future_For_Cowardice_(HOA020)-WEB-2022-TR TR 100,05 MB 14 2022-07-11
Danny_D-Back_2_Boom-CD-FLAC-1996-RAGEFLAC RAGEFLAC 251,25 MB 17 2022-07-11
Bergur_Anderson--Night_Time_Transmissions-(RESLP012)-WEB-2021-BABAS BABAS 93,01 MB 16 2022-07-11
Bryce_Hackford--Cloud_Holding-(RESLP011)-WEB-2022-BABAS BABAS 69,94 MB 11 2022-07-11
Cult_Member--Untitled_A_B-(ST007)-WEB-2020-BABAS BABAS 28,30 MB 6 2022-07-11
Glue_Boy--Glue-(ST027)-WEB-2021-BABAS BABAS 76,03 MB 11 2022-07-11
Lionmilk-YUMS-WEB-2016-KNOWN KNOWN 117,53 MB 19 2022-07-11
Jacques_van_Erven--Tunes_and_Scenery_(Hard_To_Whistle)-(RESLP001)-REISSUE-WEB-2020-BABAS BABAS 92,63 MB 19 2022-07-11
Jonny_From_Space--Head_First-(ST019)-WEB-2020-BABAS BABAS 47,57 MB 9 2022-07-11
Joost_M_de_Jong_Jr--Studies__Studien__Etudes-(RESLP004)-WEB-2020-BABAS BABAS 66,63 MB 10 2022-07-11
Kimberly_Clark--First_Of_May-(RES7001)-WEB-2021-BABAS BABAS 31,48 MB 7 2022-07-11
Bring_Me_The_Horizon-sTraNgeRs-DDC-1080p-x264-2022-SRP_iNT SRP_iNT 311,09 MB 3 2022-07-11